ASA639 KMIA-MYGF
Flight info
| Callsign | ASA639 |
|---|---|
| Flight time | N/A |
| Altitude | 15000 |
| Route | FOLZZ3 PADUS |
| Aircraft | A320/M-SDE3FGHIRWY/LB1 |
Departure
| Time | 2026-05-06 02:30 |
|---|---|
| Airport | Miami International Airport (KMIA) |
Arrival
| Time | N/A |
|---|---|
| Airport | Grand Bahama International Airport (MYGF) |
| Time | Latitude | Longitude | Altitude | Speed | Heading |
|---|---|---|---|---|---|
| 2026-05-06 02:00 | 25.79292 | -80.28171 | 24 ft | 0 kts | 169° |
| 2026-05-06 02:05 | 25.79293 | -80.28171 | 24 ft | 0 kts | 169° |
| 2026-05-06 02:20 | 25.79316 | -80.28175 | 24 ft | 2 kts | 176° |
| 2026-05-06 02:20 | 25.79332 | -80.28176 | 24 ft | 2 kts | 184° |
| 2026-05-06 02:20 | 25.79348 | -80.28173 | 23 ft | 2 kts | 197° |
| 2026-05-06 02:21 | 25.79351 | -80.28172 | 23 ft | 2 kts | 200° |
| 2026-05-06 02:21 | 25.79361 | -80.28167 | 23 ft | 2 kts | 219° |
| 2026-05-06 02:22 | 25.79373 | -80.28157 | 23 ft | 1 kts | 237° |
| 2026-05-06 02:24 | 25.79368 | -80.28169 | 23 ft | 7 kts | 253° |
| 2026-05-06 02:25 | 25.79356 | -80.28233 | 23 ft | 8 kts | 251° |
| 2026-05-06 02:25 | 25.79325 | -80.28280 | 23 ft | 7 kts | 226° |
| 2026-05-06 02:25 | 25.79292 | -80.28317 | 23 ft | 7 kts | 224° |
| 2026-05-06 02:25 | 25.79253 | -80.28356 | 23 ft | 8 kts | 221° |
| 2026-05-06 02:26 | 25.79231 | -80.28394 | 23 ft | 10 kts | 258° |
| 2026-05-06 02:26 | 25.79258 | -80.28482 | 22 ft | 14 kts | 298° |
| 2026-05-06 02:26 | 25.79322 | -80.28607 | 20 ft | 23 kts | 299° |
| 2026-05-06 02:26 | 25.79403 | -80.28767 | 18 ft | 22 kts | 299° |
| 2026-05-06 02:27 | 25.79471 | -80.28904 | 20 ft | 21 kts | 297° |
| 2026-05-06 02:27 | 25.79547 | -80.29050 | 21 ft | 23 kts | 301° |
| 2026-05-06 02:27 | 25.79622 | -80.29192 | 24 ft | 22 kts | 302° |
| 2026-05-06 02:27 | 25.79694 | -80.29339 | 22 ft | 23 kts | 298° |
| 2026-05-06 02:28 | 25.79771 | -80.29487 | 21 ft | 20 kts | 299° |
| 2026-05-06 02:28 | 25.79844 | -80.29630 | 18 ft | 20 kts | 300° |
| 2026-05-06 02:28 | 25.79907 | -80.29744 | 17 ft | 15 kts | 330° |
| 2026-05-06 02:28 | 25.80005 | -80.29759 | 18 ft | 13 kts | 358° |
| 2026-05-06 02:29 | 25.80078 | -80.29720 | 18 ft | 12 kts | 60° |
| 2026-05-06 02:29 | 25.80088 | -80.29680 | 18 ft | 0 kts | 81° |
| 2026-05-06 02:29 | 25.80093 | -80.29590 | 18 ft | 35 kts | 86° |
| 2026-05-06 02:29 | 25.80118 | -80.29002 | 25 ft | 112 kts | 87° |
| 2026-05-06 02:30 | 25.80165 | -80.27898 | 25 ft | 170 kts | 88° |
| 2026-05-06 02:30 | 25.80234 | -80.26627 | 873 ft | 158 kts | 87° |
| 2026-05-06 02:30 | 25.80093 | -80.25346 | 1247 ft | 181 kts | 112° |
| 2026-05-06 02:30 | 25.79474 | -80.24065 | 1736 ft | 195 kts | 122° |
| 2026-05-06 02:31 | 25.78790 | -80.22674 | 2128 ft | 216 kts | 117° |
| 2026-05-06 02:31 | 25.78092 | -80.21115 | 2503 ft | 236 kts | 116° |
| 2026-05-06 02:31 | 25.77344 | -80.19406 | 2896 ft | 254 kts | 116° |
| 2026-05-06 02:31 | 25.76552 | -80.17600 | 3375 ft | 265 kts | 117° |
| 2026-05-06 02:32 | 25.75692 | -80.15766 | 3997 ft | 269 kts | 118° |
| 2026-05-06 02:32 | 25.74864 | -80.13888 | 4616 ft | 273 kts | 109° |
| 2026-05-06 02:32 | 25.74555 | -80.11827 | 5198 ft | 277 kts | 89° |
| 2026-05-06 02:32 | 25.74926 | -80.09725 | 5767 ft | 280 kts | 68° |
| 2026-05-06 02:33 | 25.75950 | -80.07878 | 6316 ft | 283 kts | 49° |
| 2026-05-06 02:33 | 25.76815 | -80.06791 | 6673 ft | 285 kts | 48° |
| 2026-05-06 02:34 | 25.81243 | -80.01193 | 8329 ft | 293 kts | 49° |
| 2026-05-06 02:34 | 25.82575 | -79.99503 | 8770 ft | 295 kts | 49° |
| 2026-05-06 02:34 | 25.83936 | -79.97775 | 9196 ft | 297 kts | 49° |
| 2026-05-06 02:34 | 25.85306 | -79.96035 | 9603 ft | 299 kts | 49° |
| 2026-05-06 02:35 | 25.86690 | -79.94276 | 10136 ft | 309 kts | 49° |
| 2026-05-06 02:35 | 25.88160 | -79.92407 | 10459 ft | 331 kts | 49° |
| 2026-05-06 02:35 | 25.89679 | -79.90476 | 11067 ft | 340 kts | 49° |
| 2026-05-06 02:35 | 25.91254 | -79.88475 | 11785 ft | 345 kts | 49° |
| 2026-05-06 02:36 | 25.92849 | -79.86447 | 12486 ft | 350 kts | 49° |
| 2026-05-06 02:36 | 25.94460 | -79.84394 | 13149 ft | 354 kts | 49° |
| 2026-05-06 02:36 | 25.96215 | -79.82155 | 13828 ft | 358 kts | 49° |
| 2026-05-06 02:36 | 25.97716 | -79.80238 | 14374 ft | 362 kts | 49° |
| 2026-05-06 02:37 | 25.99382 | -79.78112 | 14820 ft | 366 kts | 49° |
| 2026-05-06 02:37 | 26.01055 | -79.75976 | 14931 ft | 363 kts | 49° |
| 2026-05-06 02:37 | 26.02694 | -79.73884 | 14955 ft | 355 kts | 49° |